Time;durP1;ratioP1;P1;durP2;ratioP2;P2;SDS_P1;SDS_P2;PMS_P1;PMS_P2;Temp;Humidity;BMP_temperature;BMP_pressure;BME280_temperature;BME280_humidity;BME280_pressure;Samples;Min_cycle;Max_cycle;Signal;HPM_P1;HPM_P2
2023/10/15 00:00:15;;;;;;;;;;;;;;;12.75;67.86;99106.91;5052229;28;19943;-75
2023/10/15 00:02:44;;;;;;;;;;;;;;;12.77;67.42;99102.53;5052167;28;19963;-75
2023/10/15 00:05:12;;;;;;;;;;;;;;;12.60;68.39;99102.88;5052176;28;20383;-75
2023/10/15 00:07:37;;;;;;;;;;;;;;;12.55;68.29;99091.91;5041615;28;19921;-75
2023/10/15 00:10:07;;;;;;;;;;;;;;;12.40;69.10;99093.50;5014630;28;19928;-75
2023/10/15 00:12:32;;;;;;;;;;;;;;;12.43;68.63;99088.00;5027511;28;20016;-75
2023/10/15 00:14:57;;;;;;;;;;;;;;;12.49;68.35;99091.38;5012325;28;19945;-75
2023/10/15 00:17:22;;;;;;;;;;;;;;;12.29;69.00;99088.41;5012450;28;20055;-75
2023/10/15 00:19:49;;;;;;;;;;;;;;;12.37;69.22;99089.41;5026697;28;20413;-74
2023/10/15 00:22:14;;;;;;;;;;;;;;;12.43;69.19;99093.63;5022707;28;20016;-75
2023/10/15 00:24:40;;;;;;;;;;;;;;;12.64;68.40;99084.97;5010976;28;20060;-75
2023/10/15 00:27:05;;;;;;;;;;;;;;;12.49;69.10;99094.97;5012240;28;20025;-75
2023/10/15 00:29:31;;;;;;;;;;;;;;;12.05;70.82;99094.88;5029905;28;19917;-74
2023/10/15 00:31:56;;;;;;;;;;;;;;;11.86;71.12;99092.69;5031845;28;20425;-75
2023/10/15 00:34:22;;;;;;;;;;;;;;;11.57;72.05;99087.00;5017795;28;19952;-75
2023/10/15 00:36:48;;;;;;;;;;;;;;;11.66;71.31;99084.88;5026658;28;19944;-75
2023/10/15 00:39:20;;;;;;;;;;;;;;;11.84;70.42;99086.63;5025572;28;20305;-75
2023/10/15 00:41:47;;;;;;;;;;;;;;;11.62;71.26;99092.38;5027159;28;20300;-75
2023/10/15 00:44:14;;;;;;;;;;;;;;;11.57;71.58;99084.19;5026701;28;19929;-75
2023/10/15 00:46:40;;;;;;;;;;;;;;;11.52;72.32;99090.88;5020895;28;19917;-75
2023/10/15 00:49:13;;;;;;;;;;;;;;;11.72;71.22;99079.84;5029123;28;19952;-75
2023/10/15 00:51:42;;;;;;;;;;;;;;;11.85;70.93;99086.28;5030288;28;19967;-74
2023/10/15 00:54:11;;;;;;;;;;;;;;;11.79;71.02;99088.50;5014043;28;19917;-75
2023/10/15 00:56:37;;;;;;;;;;;;;;;11.61;71.91;99081.50;5011868;28;19921;-75
2023/10/15 01:01:48;;;;;;;;;;;;;;;11.79;70.85;99071.69;5031566;28;19952;-75
2023/10/15 01:04:15;;;;;;;;;;;;;;;11.89;70.27;99075.97;5013220;28;20012;-75
2023/10/15 01:06:46;;;;;;;;;;;;;;;12.02;70.26;99076.81;5011790;28;20358;-75
2023/10/15 01:09:20;;;;;;;;;;;;;;;12.13;69.29;99073.50;5015061;28;20015;-75
2023/10/15 01:11:58;;;;;;;;;;;;;;;12.16;69.02;99070.78;5029812;28;20007;-75
2023/10/15 01:14:33;;;;;;;;;;;;;;;12.36;67.98;99071.75;5049952;28;20287;-75
2023/10/15 01:17:01;;;;;;;;;;;;;;;12.38;67.63;99070.63;5051335;28;19912;-75
2023/10/15 01:19:32;;;;;;;;;;;;;;;11.95;69.27;99076.53;5030700;28;19928;-75
2023/10/15 01:22:01;;;;;;;;;;;;;;;11.83;69.98;99065.38;5031234;28;19913;-75
2023/10/15 01:24:33;;;;;;;;;;;;;;;11.41;71.54;99064.50;5029572;28;19987;-75
2023/10/15 01:27:12;;;;;;;;;;;;;;;11.51;71.57;99066.00;5031097;28;19913;-75
2023/10/15 01:29:44;;;;;;;;;;;;;;;11.39;71.73;99064.00;5022538;28;20031;-75
2023/10/15 01:32:18;;;;;;;;;;;;;;;11.40;72.30;99067.63;5031588;28;19968;-75
2023/10/15 01:34:44;;;;;;;;;;;;;;;11.28;71.90;99063.66;5042209;28;19921;-74
2023/10/15 01:37:28;;;;;;;;;;;;;;;11.35;71.86;99068.69;5029638;28;19913;-75
2023/10/15 01:42:46;;;;;;;;;;;;;;;11.35;72.18;99074.28;5016016;28;19921;-75
2023/10/15 01:47:44;;;;;;;;;;;;;;;11.22;72.48;99070.66;5025361;28;19921;-75
2023/10/15 01:50:14;;;;;;;;;;;;;;;11.11;73.38;99073.09;5029458;28;19925;-75
2023/10/15 01:52:41;;;;;;;;;;;;;;;11.13;73.67;99084.75;5025404;28;19924;-75
2023/10/15 01:55:06;;;;;;;;;;;;;;;11.07;73.61;99053.38;5011371;28;19983;-75
2023/10/15 01:57:32;;;;;;;;;;;;;;;11.22;74.16;99065.88;5011303;28;19921;-75
2023/10/15 02:00:13;;;;;;;;;;;;;;;11.17;74.10;99059.69;5033586;28;19917;-75
2023/10/15 02:02:38;;;;;;;;;;;;;;;11.20;74.61;99068.22;5029182;28;19917;-75
2023/10/15 02:05:04;;;;;;;;;;;;;;;11.48;73.44;99061.09;5014787;28;19921;-75
2023/10/15 02:07:31;;;;;;;;;;;;;;;11.50;73.36;99061.56;5014655;28;20355;-75
2023/10/15 02:09:56;;;;;;;;;;;;;;;11.57;72.83;99070.19;5020637;28;19921;-75
2023/10/15 02:12:21;;;;;;;;;;;;;;;11.76;72.26;99071.56;5031152;28;19945;-75
2023/10/15 02:14:51;;;;;;;;;;;;;;;11.74;71.42;99071.09;5013175;28;19918;-75
2023/10/15 02:17:19;;;;;;;;;;;;;;;11.65;71.51;99077.66;5014647;28;20009;-75
2023/10/15 02:19:46;;;;;;;;;;;;;;;11.70;71.71;99071.00;5020261;28;20387;-75
2023/10/15 02:22:12;;;;;;;;;;;;;;;11.91;70.79;99079.25;5033369;28;19944;-75
2023/10/15 02:24:38;;;;;;;;;;;;;;;11.91;70.66;99078.44;5032513;28;19972;-75
2023/10/15 02:27:06;;;;;;;;;;;;;;;12.06;70.43;99080.53;5029572;28;19917;-75
2023/10/15 02:29:35;;;;;;;;;;;;;;;12.07;69.88;99078.56;5027929;28;20454;-75
2023/10/15 02:32:21;;;;;;;;;;;;;;;11.89;70.53;99075.97;5032405;28;20331;-75
2023/10/15 02:34:50;;;;;;;;;;;;;;;11.98;70.05;99072.22;5014104;28;19971;-75
2023/10/15 02:37:18;;;;;;;;;;;;;;;11.86;70.39;99065.47;5014197;28;20034;-75
2023/10/15 02:39:52;;;;;;;;;;;;;;;11.94;70.29;99061.75;5023672;28;19917;-75
2023/10/15 02:42:18;;;;;;;;;;;;;;;11.85;70.40;99060.22;5031300;28;19913;-75
2023/10/15 02:44:44;;;;;;;;;;;;;;;11.74;70.47;99055.09;5013901;28;19913;-75
2023/10/15 02:47:31;;;;;;;;;;;;;;;11.73;70.60;99061.06;5026135;28;19917;-75
2023/10/15 02:50:00;;;;;;;;;;;;;;;11.59;71.14;99064.22;5013749;28;19940;-75
2023/10/15 02:52:33;;;;;;;;;;;;;;;11.53;71.33;99058.06;5014023;28;19961;-75
2023/10/15 02:55:05;;;;;;;;;;;;;;;11.46;71.86;99049.41;5013740;28;19921;-75
2023/10/15 02:57:30;;;;;;;;;;;;;;;11.40;72.26;99048.84;5022211;28;19961;-75
2023/10/15 02:59:56;;;;;;;;;;;;;;;11.59;71.64;99051.06;5013653;28;19994;-75
2023/10/15 03:02:24;;;;;;;;;;;;;;;11.64;70.99;99053.59;5013604;28;19917;-75
2023/10/15 03:04:55;;;;;;;;;;;;;;;11.48;71.93;99049.91;5012331;28;20311;-75
2023/10/15 03:07:30;;;;;;;;;;;;;;;11.25;72.92;99041.97;5028066;28;20016;-75
2023/10/15 03:09:59;;;;;;;;;;;;;;;11.03;74.23;99043.22;5012483;28;19957;-75
2023/10/15 03:12:24;;;;;;;;;;;;;;;11.02;74.42;99045.22;5027248;28;19937;-75
2023/10/15 03:14:51;;;;;;;;;;;;;;;10.76;76.13;99043.56;5013362;28;19917;-75
2023/10/15 03:17:29;;;;;;;;;;;;;;;10.71;76.36;99043.78;5012200;28;20453;-75
2023/10/15 03:19:55;;;;;;;;;;;;;;;10.81;76.60;99037.75;5023444;28;19925;-75
2023/10/15 03:22:23;;;;;;;;;;;;;;;10.97;76.08;99033.44;5030188;28;20292;-75
2023/10/15 03:24:49;;;;;;;;;;;;;;;10.88;76.12;99044.75;5013200;28;19920;-75
2023/10/15 03:27:16;;;;;;;;;;;;;;;11.05;75.53;99038.13;5012134;28;19914;-75
2023/10/15 03:29:42;;;;;;;;;;;;;;;11.07;75.79;99030.19;5031692;28;19913;-75
2023/10/15 03:32:12;;;;;;;;;;;;;;;10.86;76.04;99035.88;5032866;28;19971;-75
2023/10/15 03:34:47;;;;;;;;;;;;;;;10.85;76.96;99034.25;5037241;28;19963;-75
2023/10/15 03:37:14;;;;;;;;;;;;;;;11.06;76.24;99020.16;5031135;28;19913;-75
2023/10/15 03:42:17;;;;;;;;;;;;;;;11.02;76.13;99022.84;5031037;28;19975;-75
2023/10/15 03:44:49;;;;;;;;;;;;;;;10.97;76.00;99025.84;5011479;28;20395;-75
2023/10/15 03:47:15;;;;;;;;;;;;;;;11.05;75.98;99027.75;5012908;28;19924;-75
2023/10/15 03:49:43;;;;;;;;;;;;;;;10.98;76.40;99016.31;5012648;28;19914;-75
2023/10/15 03:52:14;;;;;;;;;;;;;;;11.00;76.96;99019.59;5027759;28;20284;-75
2023/10/15 03:54:39;;;;;;;;;;;;;;;11.07;76.40;99013.41;5014825;28;19917;-75
2023/10/15 03:57:06;;;;;;;;;;;;;;;11.21;75.66;99019.47;5031831;28;20353;-75
2023/10/15 03:59:41;;;;;;;;;;;;;;;11.17;75.32;99017.72;5012539;28;19920;-75
2023/10/15 04:02:09;;;;;;;;;;;;;;;11.15;76.08;99008.84;5011412;28;19917;-75
2023/10/15 04:04:34;;;;;;;;;;;;;;;11.01;75.80;99010.03;5014011;28;19913;-75
2023/10/15 04:07:10;;;;;;;;;;;;;;;11.14;75.83;99012.81;5031219;28;19920;-75
2023/10/15 04:09:36;;;;;;;;;;;;;;;11.19;75.75;99012.56;5022494;28;19917;-75
2023/10/15 04:12:06;;;;;;;;;;;;;;;11.20;75.41;99011.41;5046946;28;19918;-75
2023/10/15 04:14:32;;;;;;;;;;;;;;;10.93;76.30;99005.34;5030323;28;19928;-75
2023/10/15 04:16:58;;;;;;;;;;;;;;;10.76;77.42;99004.41;5016166;28;20376;-75
2023/10/15 04:19:26;;;;;;;;;;;;;;;10.73;78.06;99012.66;5027352;28;19971;-75
2023/10/15 04:21:52;;;;;;;;;;;;;;;10.92;76.72;99007.34;5016913;28;19917;-75
2023/10/15 04:24:21;;;;;;;;;;;;;;;10.86;76.73;99005.09;5025666;28;19917;-75
2023/10/15 04:26:48;;;;;;;;;;;;;;;10.55;79.07;99001.66;5030668;28;20447;-74
2023/10/15 04:29:17;;;;;;;;;;;;;;;10.58;79.51;99002.97;5026318;28;19917;-74
2023/10/15 04:31:51;;;;;;;;;;;;;;;10.66;79.21;98996.47;5012013;28;19932;-73
2023/10/15 04:34:18;;;;;;;;;;;;;;;10.53;79.39;98995.59;5011959;28;20429;-75
2023/10/15 04:36:44;;;;;;;;;;;;;;;10.57;79.25;98999.38;5011194;28;19914;-72
2023/10/15 04:39:13;;;;;;;;;;;;;;;10.46;79.76;99001.78;5029984;28;19917;-71
2023/10/15 04:41:39;;;;;;;;;;;;;;;10.36;79.38;98994.63;5046652;28;19917;-73
2023/10/15 04:44:05;;;;;;;;;;;;;;;10.29;80.30;98997.16;5015123;28;20309;-73
2023/10/15 04:46:40;;;;;;;;;;;;;;;10.28;80.81;99000.31;5020888;28;19923;-74
2023/10/15 04:49:07;;;;;;;;;;;;;;;10.30;79.92;98997.97;5028577;28;19929;-75
2023/10/15 04:51:42;;;;;;;;;;;;;;;10.22;80.82;99003.31;5026545;28;19921;-74
2023/10/15 04:54:07;;;;;;;;;;;;;;;10.09;81.64;99004.41;5011976;28;20007;-74
2023/10/15 04:56:32;;;;;;;;;;;;;;;10.15;80.72;99003.06;5029682;28;19976;-74
2023/10/15 04:58:58;;;;;;;;;;;;;;;10.06;80.94;99003.13;5026344;28;20303;-75
2023/10/15 05:01:23;;;;;;;;;;;;;;;9.81;81.85;99000.22;5022621;28;19917;-73
2023/10/15 05:03:49;;;;;;;;;;;;;;;9.93;80.97;98995.84;5029761;28;19921;-72
2023/10/15 05:06:14;;;;;;;;;;;;;;;9.80;81.88;98997.78;5046504;28;20449;-72
2023/10/15 05:08:47;;;;;;;;;;;;;;;9.94;81.21;98992.72;5030623;28;19921;-74
2023/10/15 05:11:12;;;;;;;;;;;;;;;9.81;82.11;98991.84;5029502;28;20015;-74
2023/10/15 05:13:38;;;;;;;;;;;;;;;9.79;82.04;98996.16;5013169;28;19956;-74
2023/10/15 05:16:04;;;;;;;;;;;;;;;9.80;82.81;98995.78;5016727;28;19963;-72
2023/10/15 05:18:29;;;;;;;;;;;;;;;9.90;82.58;98997.38;5020947;28;20339;-74
2023/10/15 05:20:54;;;;;;;;;;;;;;;9.98;82.44;98995.66;5031156;28;19917;-74
2023/10/15 05:23:20;;;;;;;;;;;;;;;10.14;82.38;98997.81;5024186;28;20404;-73
2023/10/15 05:25:45;;;;;;;;;;;;;;;10.33;81.85;98988.91;5018508;28;19949;-73
2023/10/15 05:28:14;;;;;;;;;;;;;;;10.50;81.16;98997.16;5015004;28;19971;-74
2023/10/15 05:30:40;;;;;;;;;;;;;;;10.56;80.98;98999.69;5026273;28;20020;-74
2023/10/15 05:33:07;;;;;;;;;;;;;;;10.53;81.62;98995.59;5030364;28;20000;-72
2023/10/15 05:35:34;;;;;;;;;;;;;;;10.61;81.12;98991.06;5030898;28;19917;-72
2023/10/15 05:38:00;;;;;;;;;;;;;;;10.77;80.90;98989.25;5021146;28;19921;-71
2023/10/15 05:40:26;;;;;;;;;;;;;;;10.92;80.04;98984.13;5015081;28;19913;-72
2023/10/15 05:42:51;;;;;;;;;;;;;;;11.08;79.27;98984.25;5016661;28;20015;-72
2023/10/15 05:45:17;;;;;;;;;;;;;;;11.09;78.88;98971.88;5015353;28;19925;-72
2023/10/15 05:47:43;;;;;;;;;;;;;;;11.41;78.40;98980.50;5015027;28;20064;-71
2023/10/15 05:50:08;;;;;;;;;;;;;;;11.53;77.83;98979.63;5013640;28;19960;-72
2023/10/15 05:52:34;;;;;;;;;;;;;;;11.62;77.28;98971.91;5014916;28;19917;-73
2023/10/15 05:55:00;;;;;;;;;;;;;;;11.68;77.43;98980.06;5024696;28;20358;-73
2023/10/15 05:57:26;;;;;;;;;;;;;;;11.72;77.24;98981.00;5031783;28;20377;-73
2023/10/15 05:59:51;;;;;;;;;;;;;;;11.80;76.92;98983.66;5029902;28;19968;-74
2023/10/15 06:02:17;;;;;;;;;;;;;;;11.97;76.07;98975.31;5014780;28;19975;-74
2023/10/15 06:04:43;;;;;;;;;;;;;;;11.92;76.48;98973.56;5028337;28;19913;-74
2023/10/15 06:07:09;;;;;;;;;;;;;;;12.04;76.15;98981.13;5033367;28;19914;-74
2023/10/15 06:09:35;;;;;;;;;;;;;;;12.16;75.56;98978.28;5014632;28;20380;-74
2023/10/15 06:12:00;;;;;;;;;;;;;;;12.39;74.98;98985.31;5014422;28;19933;-74
2023/10/15 06:14:28;;;;;;;;;;;;;;;12.46;74.15;98977.88;5032972;28;19924;-73
2023/10/15 06:16:53;;;;;;;;;;;;;;;12.54;74.04;98978.06;5034256;28;20369;-73
2023/10/15 06:19:19;;;;;;;;;;;;;;;12.78;72.93;98966.66;5020533;28;19947;-74
2023/10/15 06:21:44;;;;;;;;;;;;;;;13.00;72.62;98969.22;5034004;28;19913;-73
2023/10/15 06:24:10;;;;;;;;;;;;;;;12.80;72.90;98965.53;5016569;28;19921;-74
2023/10/15 06:26:36;;;;;;;;;;;;;;;12.80;73.19;98973.94;5014276;28;19919;-73
2023/10/15 06:29:01;;;;;;;;;;;;;;;13.04;72.71;98959.72;5012354;28;19965;-74
2023/10/15 06:31:28;;;;;;;;;;;;;;;13.30;71.67;98958.28;5032277;28;20067;-74
2023/10/15 06:33:55;;;;;;;;;;;;;;;13.43;71.60;98952.56;5046769;28;19917;-73
2023/10/15 06:36:20;;;;;;;;;;;;;;;13.47;70.22;98959.09;5053514;28;19912;-73
2023/10/15 06:38:46;;;;;;;;;;;;;;;13.52;70.45;98953.19;5024542;28;19940;-74
2023/10/15 06:41:11;;;;;;;;;;;;;;;13.88;69.76;98950.31;5013899;28;20004;-73
2023/10/15 06:43:36;;;;;;;;;;;;;;;14.19;68.07;98948.53;5019540;28;19978;-73
2023/10/15 06:46:08;;;;;;;;;;;;;;;14.36;67.19;98946.41;5040243;28;19921;-73
2023/10/15 06:48:41;;;;;;;;;;;;;;;14.52;67.21;98946.31;5022535;28;20390;-73
2023/10/15 06:51:06;;;;;;;;;;;;;;;14.59;66.74;98947.25;5032376;28;19924;-75
2023/10/15 06:53:32;;;;;;;;;;;;;;;14.78;66.03;98950.38;5028059;28;20321;-74
2023/10/15 06:55:58;;;;;;;;;;;;;;;14.58;66.35;98942.81;5032875;28;20009;-74
2023/10/15 06:58:24;;;;;;;;;;;;;;;14.78;65.89;98939.13;5020990;28;19918;-75
2023/10/15 07:00:49;;;;;;;;;;;;;;;14.58;65.44;98936.34;5016657;28;19921;-74
2023/10/15 07:03:15;;;;;;;;;;;;;;;14.73;65.63;98934.63;5023184;28;19921;-73
2023/10/15 07:05:43;;;;;;;;;;;;;;;14.81;65.16;98936.38;5013741;28;20377;-75
2023/10/15 07:08:08;;;;;;;;;;;;;;;15.10;64.96;98927.59;5021352;28;19917;-75
2023/10/15 07:10:33;;;;;;;;;;;;;;;15.14;64.94;98920.81;5033330;28;19921;-75
2023/10/15 07:13:01;;;;;;;;;;;;;;;15.37;64.19;98919.09;5025392;28;19921;-75
2023/10/15 07:15:26;;;;;;;;;;;;;;;15.53;63.48;98918.94;5023255;28;20323;-75
2023/10/15 07:17:52;;;;;;;;;;;;;;;15.63;63.30;98914.63;5026520;28;19920;-74
2023/10/15 07:20:27;;;;;;;;;;;;;;;15.81;62.80;98914.84;5025836;28;19936;-74
2023/10/15 07:22:53;;;;;;;;;;;;;;;16.10;61.87;98909.53;5026369;28;19913;-74
2023/10/15 07:25:19;;;;;;;;;;;;;;;16.31;61.04;98906.16;5033056;28;19917;-73
2023/10/15 07:27:48;;;;;;;;;;;;;;;16.69;59.70;98912.53;5031156;28;19913;-74
2023/10/15 07:30:19;;;;;;;;;;;;;;;16.85;59.17;98914.28;5028611;28;19921;-72
2023/10/15 07:32:45;;;;;;;;;;;;;;;17.16;57.80;98905.66;5023855;28;19964;-73
2023/10/15 07:35:11;;;;;;;;;;;;;;;17.41;56.95;98905.81;5029282;28;19964;-73
2023/10/15 07:37:37;;;;;;;;;;;;;;;17.59;56.38;98902.25;5020915;28;19921;-72
2023/10/15 07:40:06;;;;;;;;;;;;;;;17.70;55.98;98893.84;5023840;28;19917;-81
2023/10/15 07:42:34;;;;;;;;;;;;;;;17.51;56.02;98873.97;5026088;28;19917;-73
2023/10/15 07:45:00;;;;;;;;;;;;;;;17.97;55.24;98885.81;5008529;28;19928;-76
2023/10/15 07:47:25;;;;;;;;;;;;;;;18.17;54.41;98877.00;5010092;28;20195;-75
2023/10/15 07:49:50;;;;;;;;;;;;;;;18.56;55.09;98881.13;5009990;28;19949;-75
2023/10/15 07:52:16;;;;;;;;;;;;;;;18.82;53.21;98882.72;5013286;28;19929;-77
2023/10/15 07:54:43;;;;;;;;;;;;;;;19.05;52.54;98879.50;5045908;28;20011;-78
2023/10/15 07:57:10;;;;;;;;;;;;;;;19.25;51.98;98878.22;5026402;28;20355;-76
2023/10/15 07:59:35;;;;;;;;;;;;;;;19.49;52.02;98873.72;5021427;28;20296;-77
2023/10/15 08:02:01;;;;;;;;;;;;;;;19.69;52.04;98871.22;5017003;28;19924;-73
2023/10/15 08:04:26;;;;;;;;;;;;;;;19.86;51.82;98868.69;5025765;28;19917;-74
2023/10/15 08:06:52;;;;;;;;;;;;;;;20.02;50.93;98871.06;5031539;28;20439;-76
2023/10/15 08:09:17;;;;;;;;;;;;;;;20.20;51.71;98871.75;5012718;28;20392;-75
2023/10/15 08:11:44;;;;;;;;;;;;;;;20.24;50.04;98868.09;5011784;28;19924;-77
2023/10/15 08:14:09;;;;;;;;;;;;;;;20.45;50.51;98862.28;5023705;28;19917;-77
2023/10/15 08:16:35;;;;;;;;;;;;;;;20.59;50.03;98857.69;5029591;28;19943;-77
2023/10/15 08:19:00;;;;;;;;;;;;;;;20.79;49.60;98855.09;5027442;28;20359;-75
2023/10/15 08:21:25;;;;;;;;;;;;;;;20.93;49.74;98853.34;5024433;28;19921;-75
2023/10/15 08:23:53;;;;;;;;;;;;;;;21.23;49.26;98844.13;5027615;28;20301;-74
2023/10/15 08:26:18;;;;;;;;;;;;;;;21.27;49.65;98838.38;5024344;28;20322;-77
2023/10/15 08:28:44;;;;;;;;;;;;;;;21.45;49.74;98841.81;5016510;28;20000;-73
2023/10/15 08:31:09;;;;;;;;;;;;;;;21.66;48.45;98834.28;5018118;28;19944;-74
2023/10/15 08:33:34;;;;;;;;;;;;;;;21.88;46.73;98831.16;5029225;28;19917;-74
2023/10/15 08:36:02;;;;;;;;;;;;;;;21.93;47.08;98824.16;5030307;28;19917;-74
2023/10/15 08:38:27;;;;;;;;;;;;;;;22.15;45.78;98821.81;5019327;28;19925;-74
2023/10/15 08:40:54;;;;;;;;;;;;;;;22.18;45.14;98814.44;5011823;28;20304;-74
2023/10/15 08:43:40;;;;;;;;;;;;;;;22.30;45.64;98811.78;5021895;28;20314;-74
2023/10/15 08:46:09;;;;;;;;;;;;;;;22.61;43.81;98819.44;5012405;28;19967;-74
2023/10/15 08:48:37;;;;;;;;;;;;;;;22.56;42.92;98815.09;5025902;28;20319;-73
2023/10/15 08:51:03;;;;;;;;;;;;;;;22.71;43.27;98814.81;5027496;28;19980;-74
2023/10/15 08:53:30;;;;;;;;;;;;;;;22.88;41.97;98806.38;5015788;28;19952;-74
2023/10/15 08:55:57;;;;;;;;;;;;;;;23.07;41.87;98804.78;5009857;28;20355;-75
2023/10/15 08:58:25;;;;;;;;;;;;;;;23.25;39.75;98796.69;5012630;28;19917;-73
2023/10/15 09:00:51;;;;;;;;;;;;;;;23.25;40.11;98787.31;5010573;28;19988;-73
2023/10/15 09:03:17;;;;;;;;;;;;;;;23.50;39.85;98783.16;5010852;28;19972;-73
2023/10/15 09:05:42;;;;;;;;;;;;;;;23.57;39.25;98774.47;5009754;28;19914;-73
2023/10/15 09:08:08;;;;;;;;;;;;;;;23.76;39.74;98772.81;5011188;28;19968;-72
2023/10/15 09:10:40;;;;;;;;;;;;;;;23.91;38.90;98767.59;5021945;28;20296;-75
2023/10/15 09:13:14;;;;;;;;;;;;;;;24.21;37.42;98777.09;5023685;28;19917;-72
2023/10/15 09:15:39;;;;;;;;;;;;;;;24.45;36.89;98771.19;5032814;28;20352;-74
2023/10/15 09:18:05;;;;;;;;;;;;;;;24.51;36.92;98760.84;5040466;28;19933;-74
2023/10/15 09:20:33;;;;;;;;;;;;;;;24.69;36.42;98765.28;5014218;28;19917;-76
2023/10/15 09:22:59;;;;;;;;;;;;;;;24.81;36.41;98766.63;5013487;28;19929;-77
2023/10/15 09:25:27;;;;;;;;;;;;;;;24.95;35.92;98762.56;5011440;28;19917;-79
2023/10/15 09:27:53;;;;;;;;;;;;;;;25.07;35.63;98758.94;5012318;28;19921;-74
2023/10/15 09:30:30;;;;;;;;;;;;;;;25.18;35.66;98763.56;5012319;28;19921;-77
2023/10/15 09:32:58;;;;;;;;;;;;;;;25.35;36.51;98759.38;5026157;28;20054;-77
2023/10/15 09:35:24;;;;;;;;;;;;;;;25.42;35.91;98746.91;5049742;28;19917;-73
2023/10/15 09:37:49;;;;;;;;;;;;;;;25.62;36.14;98743.88;5037470;28;19917;-74
2023/10/15 09:40:22;;;;;;;;;;;;;;;25.77;35.28;98743.44;5011722;28;20055;-76
2023/10/15 09:42:49;;;;;;;;;;;;;;;25.79;34.21;98743.78;5017824;28;19925;-75
2023/10/15 09:45:18;;;;;;;;;;;;;;;25.82;33.64;98739.97;5046396;28;19924;-84
2023/10/15 09:47:52;;;;;;;;;;;;;;;25.98;33.21;98735.41;4952105;28;2509968;-77
2023/10/15 09:50:24;;;;;;;;;;;;;;;26.07;34.75;98724.06;5018854;28;19932;-79
2023/10/15 09:52:57;;;;;;;;;;;;;;;25.58;33.55;98714.56;5019324;28;19922;-77
2023/10/15 09:55:31;;;;;;;;;;;;;;;25.73;34.65;98714.91;5030117;28;20392;-76
2023/10/15 09:57:57;;;;;;;;;;;;;;;25.86;35.01;98708.38;5032687;28;19917;-77
2023/10/15 10:03:29;;;;;;;;;;;;;;;26.29;33.12;98709.03;4974783;28;20465;-77
2023/10/15 10:06:26;;;;;;;;;;;;;;;26.44;33.12;98703.59;5008871;28;19948;-77
2023/10/15 10:09:09;;;;;;;;;;;;;;;26.64;32.17;98697.56;5028026;28;19917;-77
2023/10/15 10:11:43;;;;;;;;;;;;;;;26.65;32.18;98687.69;5049434;28;19921;-78
2023/10/15 10:14:29;;;;;;;;;;;;;;;26.59;31.97;98683.84;5049719;28;19913;-78
2023/10/15 10:16:55;;;;;;;;;;;;;;;26.82;31.59;98679.72;5046332;28;19979;-77
2023/10/15 10:19:24;;;;;;;;;;;;;;;26.87;31.36;98672.63;5014004;28;20296;-77
2023/10/15 10:21:49;;;;;;;;;;;;;;;27.10;31.66;98674.22;5012864;28;19956;-77
2023/10/15 10:24:18;;;;;;;;;;;;;;;27.25;31.38;98670.78;5025865;28;19951;-76
2023/10/15 10:26:48;;;;;;;;;;;;;;;27.44;31.18;98668.81;5033703;28;19971;-77
2023/10/15 10:29:13;;;;;;;;;;;;;;;27.39;30.39;98661.59;5015506;28;20474;-76
2023/10/15 10:31:40;;;;;;;;;;;;;;;27.52;30.77;98657.84;5013877;28;19921;-75
2023/10/15 10:34:05;;;;;;;;;;;;;;;27.49;31.96;98659.56;5018041;28;20406;-75
2023/10/15 10:36:36;;;;;;;;;;;;;;;27.63;30.69;98648.81;5033691;28;19921;-75
2023/10/15 10:39:07;;;;;;;;;;;;;;;27.61;30.13;98647.22;5017049;28;20257;-75
2023/10/15 10:41:37;;;;;;;;;;;;;;;27.74;29.82;98646.28;5012461;28;20323;-76
2023/10/15 10:44:10;;;;;;;;;;;;;;;27.79;30.83;98633.38;5013970;28;19974;-76
2023/10/15 10:46:42;;;;;;;;;;;;;;;27.95;30.61;98638.06;5012298;28;20380;-76
2023/10/15 10:49:13;;;;;;;;;;;;;;;28.01;29.34;98633.31;5016226;28;20053;-76
2023/10/15 10:51:40;;;;;;;;;;;;;;;27.56;29.57;98626.94;5026658;28;19936;-76
2023/10/15 10:54:05;;;;;;;;;;;;;;;27.14;29.80;98631.00;5029008;28;20454;-76
2023/10/15 10:56:40;;;;;;;;;;;;;;;27.65;29.66;98621.22;5012179;28;19914;-75
2023/10/15 10:59:08;;;;;;;;;;;;;;;27.90;28.69;98616.50;5013515;28;19975;-75
2023/10/15 11:01:37;;;;;;;;;;;;;;;27.76;30.06;98615.06;5013478;28;19921;-78
2023/10/15 11:04:06;;;;;;;;;;;;;;;28.01;29.68;98610.31;5025419;28;19917;-77
2023/10/15 11:06:39;;;;;;;;;;;;;;;28.06;30.00;98603.91;5028461;28;19920;-77
2023/10/15 11:09:15;;;;;;;;;;;;;;;28.34;29.64;98600.31;5040100;28;19921;-76
2023/10/15 11:11:41;;;;;;;;;;;;;;;28.29;28.64;98604.59;5028161;28;19985;-78
2023/10/15 11:14:06;;;;;;;;;;;;;;;28.40;28.93;98596.31;5012155;28;19975;-77
2023/10/15 11:16:32;;;;;;;;;;;;;;;28.54;29.33;98599.81;5013201;28;19913;-78
2023/10/15 11:18:57;;;;;;;;;;;;;;;27.85;28.75;98591.28;5028006;28;20379;-77
2023/10/15 11:21:23;;;;;;;;;;;;;;;28.11;28.94;98588.91;5031655;28;20410;-76
2023/10/15 11:23:52;;;;;;;;;;;;;;;28.42;29.20;98585.13;5018036;28;20004;-75
2023/10/15 11:26:18;;;;;;;;;;;;;;;28.60;28.58;98589.28;5013226;28;19914;-78
2023/10/15 11:28:45;;;;;;;;;;;;;;;28.79;28.44;98587.16;5006081;28;19921;-77
2023/10/15 11:31:10;;;;;;;;;;;;;;;28.97;29.56;98580.59;5011028;28;19928;-77
2023/10/15 11:33:36;;;;;;;;;;;;;;;29.24;28.00;98573.13;5011795;28;20319;-75
2023/10/15 11:36:06;;;;;;;;;;;;;;;29.17;27.80;98567.72;5011742;28;20612;-77
2023/10/15 11:38:31;;;;;;;;;;;;;;;29.10;27.13;98565.22;5011629;28;19913;-78
2023/10/15 11:40:57;;;;;;;;;;;;;;;29.15;27.89;98564.53;5011662;28;20365;-76
2023/10/15 11:43:22;;;;;;;;;;;;;;;28.99;26.75;98563.63;5012856;28;19921;-76
2023/10/15 11:45:47;;;;;;;;;;;;;;;29.11;27.43;98572.56;5012899;28;19928;-76
2023/10/15 11:48:13;;;;;;;;;;;;;;;29.23;27.15;98556.34;5012542;28;19921;-77
2023/10/15 11:50:41;;;;;;;;;;;;;;;29.16;26.60;98559.59;5012637;28;20015;-77
2023/10/15 11:53:17;;;;;;;;;;;;;;;28.88;27.30;98553.91;5024450;28;19917;-76
2023/10/15 11:55:47;;;;;;;;;;;;;;;29.17;27.54;98549.66;5037824;28;20392;-74
2023/10/15 11:58:19;;;;;;;;;;;;;;;29.29;26.34;98555.19;5024332;28;19968;-74
2023/10/15 12:00:48;;;;;;;;;;;;;;;29.22;26.57;98546.94;5016173;28;19921;-77
2023/10/15 12:03:15;;;;;;;;;;;;;;;29.35;26.66;98554.53;5029519;28;20432;-73
2023/10/15 12:05:42;;;;;;;;;;;;;;;29.55;26.58;98546.13;5016652;28;20388;-74
2023/10/15 12:08:08;;;;;;;;;;;;;;;29.70;26.39;98536.78;5021514;28;19968;-76
2023/10/15 12:10:33;;;;;;;;;;;;;;;29.59;26.19;98545.16;5011679;28;19929;-72
2023/10/15 12:13:02;;;;;;;;;;;;;;;29.50;26.03;98543.13;5026005;28;19918;-76
2023/10/15 12:15:34;;;;;;;;;;;;;;;29.56;26.51;98547.75;5030138;28;19936;-74
2023/10/15 12:18:02;;;;;;;;;;;;;;;29.72;25.99;98537.06;5012369;28;19936;-75
2023/10/15 12:20:27;;;;;;;;;;;;;;;29.42;24.79;98542.66;5019646;28;19939;-74
2023/10/15 12:22:53;;;;;;;;;;;;;;;29.60;25.01;98538.13;5020789;28;19916;-75
2023/10/15 12:25:18;;;;;;;;;;;;;;;29.72;25.51;98539.16;5033924;28;20315;-75
2023/10/15 12:27:43;;;;;;;;;;;;;;;29.65;25.97;98535.38;5020752;28;19917;-75
2023/10/15 12:30:24;;;;;;;;;;;;;;;29.70;25.37;98534.69;5034621;28;20398;-75
2023/10/15 12:32:50;;;;;;;;;;;;;;;29.79;25.24;98536.69;5022031;28;19921;-74
2023/10/15 12:35:19;;;;;;;;;;;;;;;29.84;24.94;98538.09;5023673;28;20321;-87
2023/10/15 12:37:46;;;;;;;;;;;;;;;29.86;24.97;98528.97;5022516;28;19996;-74
2023/10/15 12:40:12;;;;;;;;;;;;;;;29.93;24.73;98525.72;5019130;28;19944;-72
2023/10/15 12:42:41;;;;;;;;;;;;;;;30.09;24.99;98527.38;5017296;28;19921;-77
2023/10/15 12:45:09;;;;;;;;;;;;;;;30.02;25.04;98534.28;5015664;28;19918;-76
2023/10/15 12:47:36;;;;;;;;;;;;;;;29.70;24.97;98528.91;5013878;28;19972;-72
2023/10/15 12:50:04;;;;;;;;;;;;;;;29.48;24.54;98517.72;5018289;28;19925;-77
2023/10/15 12:52:29;;;;;;;;;;;;;;;29.31;24.88;98516.47;5023178;28;20380;-73
2023/10/15 12:54:54;;;;;;;;;;;;;;;29.58;25.17;98511.91;5020503;28;19979;-74
2023/10/15 12:57:22;;;;;;;;;;;;;;;29.74;24.57;98514.34;5026731;28;19925;-74
2023/10/15 12:59:47;;;;;;;;;;;;;;;29.48;25.21;98514.81;5034001;28;20358;-77
2023/10/15 13:02:14;;;;;;;;;;;;;;;29.47;25.37;98503.78;5029405;28;19979;-74
2023/10/15 13:04:39;;;;;;;;;;;;;;;28.75;25.48;98517.47;5028104;28;19963;-75